Time;durP1;ratioP1;P1;durP2;ratioP2;P2;SDS_P1;SDS_P2;PMS_P1;PMS_P2;Temp;Humidity;BMP_temperature;BMP_pressure;BME280_temperature;BME280_humidity;BME280_pressure;Samples;Min_cycle;Max_cycle;Signal;HPM_P1;HPM_P2
2022/12/23 00:00:34;;;;;;;47.25;33.03;;;8.70;99.90;;;;;;4211401;28;20425;-88
2022/12/23 00:02:54;;;;;;;48.22;34.50;;;8.70;99.90;;;;;;4230599;28;20039;-88
2022/12/23 00:05:14;;;;;;;56.70;38.72;;;8.80;99.90;;;;;;4232412;28;20050;-88
2022/12/23 00:07:34;;;;;;;58.10;39.88;;;8.90;99.90;;;;;;4216918;28;20047;-88
2022/12/23 00:09:54;;;;;;;68.80;43.45;;;8.90;99.90;;;;;;4225029;28;20043;-88
2022/12/23 00:15:07;;;;;;;48.90;34.83;;;8.90;99.90;;;;;;4208611;28;20104;-89
2022/12/23 00:17:27;;;;;;;50.35;38.15;;;8.90;99.90;;;;;;4230390;28;20096;-88
2022/12/23 00:19:47;;;;;;;51.13;39.58;;;8.90;99.90;;;;;;4223145;28;20063;-89
2022/12/23 00:22:07;;;;;;;51.03;39.83;;;9.00;99.90;;;;;;4226557;28;20413;-88
2022/12/23 00:24:27;;;;;;;49.17;36.78;;;9.00;99.90;;;;;;4218489;28;20071;-88
2022/12/23 00:26:47;;;;;;;49.90;37.10;;;9.00;99.90;;;;;;4222747;28;20051;-88
2022/12/23 00:29:06;;;;;;;52.70;38.17;;;9.00;99.90;;;;;;4224056;28;20081;-88
2022/12/23 00:31:26;;;;;;;52.78;37.35;;;9.10;99.90;;;;;;4223152;28;20065;-88
2022/12/23 00:33:48;;;;;;;43.08;35.78;;;9.10;99.90;;;;;;4223941;28;20051;-88
2022/12/23 00:36:19;;;;;;;47.75;36.17;;;9.10;99.90;;;;;;4225308;28;20087;-88
2022/12/23 00:43:56;;;;;;;50.58;35.75;;;9.00;99.90;;;;;;4235287;28;20081;-89
2022/12/23 00:46:16;;;;;;;44.65;33.72;;;9.00;99.90;;;;;;4215758;28;20092;-88
2022/12/23 00:51:14;;;;;;;41.83;34.95;;;9.00;99.90;;;;;;4234380;28;20054;-88
2022/12/23 00:53:34;;;;;;;50.60;37.08;;;8.90;99.90;;;;;;4214331;28;20377;-88
2022/12/23 00:55:54;;;;;;;48.70;36.28;;;9.00;99.90;;;;;;4215771;28;20094;-88
2022/12/23 00:58:18;;;;;;;49.78;35.63;;;9.00;99.90;;;;;;4234883;28;20102;-88
2022/12/23 01:06:00;;;;;;;50.42;36.45;;;8.90;99.90;;;;;;4228863;28;20356;-88
2022/12/23 01:08:20;;;;;;;50.67;36.72;;;8.90;99.90;;;;;;4229595;28;20122;-88
2022/12/23 01:10:40;;;;;;;47.42;35.00;;;9.00;99.90;;;;;;4209581;28;20052;-88
2022/12/23 01:12:59;;;;;;;50.53;36.33;;;9.00;99.90;;;;;;4213161;28;20082;-88
2022/12/23 01:15:19;;;;;;;42.25;32.58;;;9.00;99.90;;;;;;4224434;28;20107;-88
2022/12/23 01:17:39;;;;;;;40.22;33.92;;;9.00;99.90;;;;;;4221061;28;20059;-87
2022/12/23 01:19:59;;;;;;;41.33;31.75;;;9.00;99.90;;;;;;4215428;28;20116;-87
2022/12/23 01:22:19;;;;;;;38.60;32.63;;;9.00;99.90;;;;;;4214084;28;20361;-88
2022/12/23 01:24:39;;;;;;;44.97;32.53;;;9.00;99.90;;;;;;4215535;28;20059;-88
2022/12/23 01:26:59;;;;;;;36.70;30.52;;;9.00;99.90;;;;;;4222004;28;20111;-87
2022/12/23 01:29:19;;;;;;;35.75;32.00;;;9.00;99.90;;;;;;4221287;28;20035;-88
2022/12/23 01:31:39;;;;;;;48.30;35.17;;;9.10;99.90;;;;;;4233948;28;20243;-88
2022/12/23 01:34:00;;;;;;;41.92;33.78;;;9.00;99.90;;;;;;4229283;28;20034;-88
2022/12/23 01:36:20;;;;;;;40.47;32.90;;;9.00;99.90;;;;;;4221921;28;20077;-88
2022/12/23 01:38:40;;;;;;;40.33;34.72;;;9.00;99.90;;;;;;4225894;28;20085;-88
2022/12/23 01:41:01;;;;;;;43.00;33.60;;;9.00;99.90;;;;;;4232043;28;20385;-88
2022/12/23 01:43:21;;;;;;;42.38;32.72;;;9.00;99.90;;;;;;4222728;28;20082;-88
2022/12/23 01:45:41;;;;;;;48.83;32.83;;;9.00;99.90;;;;;;4227615;28;20061;-88
2022/12/23 01:48:09;;;;;;;42.30;32.15;;;9.00;99.90;;;;;;4232431;28;20235;-88
2022/12/23 01:50:50;;;;;;;43.28;34.63;;;9.00;99.90;;;;;;4227224;28;20063;-88
2022/12/23 01:53:34;;;;;;;41.05;32.75;;;9.00;99.90;;;;;;4217474;28;20043;-88
2022/12/23 01:56:23;;;;;;;43.22;34.38;;;9.00;99.90;;;;;;4215011;28;20042;-88
2022/12/23 01:58:52;;;;;;;42.15;32.88;;;9.00;99.90;;;;;;4229350;28;20045;-88
2022/12/23 02:03:56;;;;;;;48.30;34.05;;;8.90;99.90;;;;;;4228444;28;20089;-90
2022/12/23 02:09:16;;;;;;;40.78;31.65;;;8.90;99.90;;;;;;4230837;28;20085;-90
2022/12/23 02:12:23;;;;;;;39.47;31.90;;;8.90;99.90;;;;;;4228542;28;20094;-90
2022/12/23 02:17:40;;;;;;;40.45;33.03;;;9.00;99.90;;;;;;4228732;28;20111;-90
2022/12/23 02:20:11;;;;;;;40.33;32.38;;;9.00;99.90;;;;;;4233211;28;20059;-89
2022/12/23 02:22:50;;;;;;;42.90;32.70;;;9.00;99.90;;;;;;4223727;28;20094;-90
2022/12/23 02:25:36;;;;;;;42.92;34.83;;;9.00;99.90;;;;;;4228569;28;20319;-90
2022/12/23 02:28:22;;;;;;;43.90;32.25;;;9.00;99.90;;;;;;4217545;28;20104;-90
2022/12/23 02:30:46;;;;;;;36.00;31.10;;;9.00;99.90;;;;;;4212721;28;20078;-90
2022/12/23 02:33:35;;;;;;;34.03;30.15;;;9.00;99.90;;;;;;4212038;28;20044;-90
2022/12/23 02:36:32;;;;;;;36.72;30.05;;;9.00;99.90;;;;;;4229051;28;20043;-90
2022/12/23 02:38:59;;;;;;;31.92;28.52;;;9.00;99.90;;;;;;4232457;28;20235;-90
2022/12/23 02:41:27;;;;;;;36.53;29.20;;;9.00;99.90;;;;;;4211776;28;20079;-90
2022/12/23 02:44:02;;;;;;;34.75;30.27;;;9.00;99.90;;;;;;4217296;28;20082;-90
2022/12/23 02:46:35;;;;;;;32.60;29.30;;;9.00;99.90;;;;;;4228717;28;20072;-90
2022/12/23 02:49:09;;;;;;;31.87;28.53;;;9.00;99.90;;;;;;4215018;28;20048;-90
2022/12/23 02:51:34;;;;;;;35.25;27.85;;;9.10;99.90;;;;;;4219949;28;20104;-90
2022/12/23 02:53:59;;;;;;;35.90;29.40;;;9.00;99.90;;;;;;4228591;28;20058;-90
2022/12/23 02:56:22;;;;;;;60.78;33.30;;;9.00;99.90;;;;;;4230800;28;20290;-90
2022/12/23 02:59:11;;;;;;;54.03;32.10;;;8.80;99.90;;;;;;4217911;28;20447;-90
2022/12/23 03:01:33;;;;;;;53.35;32.58;;;8.80;99.90;;;;;;4233822;28;20097;-90
2022/12/23 03:03:54;;;;;;;41.95;29.13;;;8.90;99.90;;;;;;4217745;28;20112;-90
2022/12/23 03:06:25;;;;;;;42.35;29.48;;;8.80;99.90;;;;;;4224928;28;20412;-90
2022/12/23 03:08:46;;;;;;;41.53;29.00;;;8.80;99.90;;;;;;4232107;28;20038;-90
2022/12/23 03:11:18;;;;;;;33.70;26.98;;;8.90;99.90;;;;;;4231432;28;20066;-90
2022/12/23 03:14:09;;;;;;;29.92;26.20;;;8.90;99.90;;;;;;4221835;28;20043;-90
2022/12/23 03:16:54;;;;;;;30.48;27.20;;;8.90;99.90;;;;;;4218668;28;20089;-90
2022/12/23 03:19:17;;;;;;;32.65;26.02;;;8.80;99.90;;;;;;4230390;28;20046;-89
2022/12/23 03:21:58;;;;;;;28.55;25.45;;;8.80;99.90;;;;;;4247210;28;20050;-90
2022/12/23 03:24:24;;;;;;;29.52;26.70;;;8.80;99.90;;;;;;4226455;28;20050;-90
2022/12/23 03:27:11;;;;;;;30.20;26.80;;;8.70;99.90;;;;;;4223032;28;20039;-90
2022/12/23 03:29:34;;;;;;;31.70;26.75;;;8.80;99.90;;;;;;4212363;28;20434;-89
2022/12/23 03:31:56;;;;;;;;;;;8.80;99.90;;;;;;4216735;28;20099;-91
2022/12/23 03:34:21;;;;;;;30.35;26.27;;;8.70;99.90;;;;;;4216259;28;20138;-90
2022/12/23 03:36:47;;;;;;;34.45;28.02;;;8.60;99.90;;;;;;4230248;28;20062;-90
2022/12/23 03:39:12;;;;;;;34.50;27.13;;;8.60;99.90;;;;;;4225602;28;20481;-90
2022/12/23 03:41:41;;;;;;;130.35;39.63;;;8.60;99.90;;;;;;4215785;28;20131;-90
2022/12/23 03:44:07;;;;;;;160.00;40.20;;;8.60;99.90;;;;;;4219522;28;20535;-90
2022/12/23 03:46:47;;;;;;;98.03;39.35;;;8.50;99.90;;;;;;4216957;28;20067;-90
2022/12/23 03:49:31;;;;;;;46.95;31.25;;;8.60;99.90;;;;;;4216437;28;20086;-90
2022/12/23 03:52:09;;;;;;;56.90;30.85;;;8.50;99.90;;;;;;4229671;28;20066;-90
2022/12/23 03:54:39;;;;;;;82.68;37.35;;;8.50;99.90;;;;;;4234257;28;20039;-90
2022/12/23 03:57:04;;;;;;;68.55;34.20;;;8.50;99.90;;;;;;4213936;28;20048;-90
2022/12/23 03:59:29;;;;;;;65.03;34.78;;;8.50;99.90;;;;;;4226442;28;20091;-90
2022/12/23 04:02:13;;;;;;;168.52;38.58;;;8.50;99.90;;;;;;4229802;28;20082;-90
2022/12/23 04:04:40;;;;;;;359.30;45.75;;;8.50;99.90;;;;;;4213149;28;20044;-90
2022/12/23 04:07:09;;;;;;;72.28;33.85;;;8.50;99.90;;;;;;4222305;28;20043;-90
2022/12/23 04:09:29;;;;;;;290.23;42.10;;;8.50;99.90;;;;;;4215720;28;20213;-90
2022/12/23 04:11:50;;;;;;;182.60;39.38;;;8.50;99.90;;;;;;4214581;28;20047;-90
2022/12/23 04:14:16;;;;;;;262.63;41.55;;;8.50;99.90;;;;;;4230762;28;20070;-91
2022/12/23 04:16:37;;;;;;;380.10;50.22;;;8.50;99.90;;;;;;4228624;28;20055;-90
2022/12/23 04:18:57;;;;;;;77.90;36.38;;;8.50;99.90;;;;;;4230248;28;20043;-91
2022/12/23 04:21:17;;;;;;;98.22;36.35;;;8.50;99.90;;;;;;4224710;28;20042;-90
2022/12/23 04:23:39;;;;;;;76.72;38.22;;;8.50;99.90;;;;;;4213776;28;20043;-91
2022/12/23 04:25:58;;;;;;;65.57;35.15;;;8.50;99.90;;;;;;4217606;28;20114;-90
2022/12/23 04:28:19;;;;;;;66.03;37.10;;;8.50;99.90;;;;;;4231634;28;20047;-90
2022/12/23 04:30:40;;;;;;;68.70;36.00;;;8.50;99.90;;;;;;4232777;28;20090;-90
2022/12/23 04:33:01;;;;;;;78.82;37.30;;;8.60;99.90;;;;;;4238181;28;20242;-90
2022/12/23 04:35:22;;;;;;;66.45;36.15;;;8.50;99.90;;;;;;4221055;28;20266;-90
2022/12/23 04:37:42;;;;;;;74.55;36.60;;;8.60;99.90;;;;;;4230591;28;20369;-90
2022/12/23 04:40:02;;;;;;;59.80;35.03;;;8.60;99.90;;;;;;4223804;28;20043;-90
2022/12/23 04:42:22;;;;;;;70.85;36.45;;;8.60;99.90;;;;;;4224179;28;20092;-90
2022/12/23 04:44:42;;;;;;;49.55;33.10;;;8.60;99.90;;;;;;4216322;28;20116;-91
2022/12/23 04:47:01;;;;;;;44.95;29.15;;;8.60;99.90;;;;;;4223198;28;20088;-91
2022/12/23 04:49:22;;;;;;;34.38;28.08;;;8.50;99.90;;;;;;4223070;28;20086;-90
2022/12/23 04:51:41;;;;;;;44.33;30.05;;;8.50;99.90;;;;;;4212385;28;20436;-90
2022/12/23 04:54:01;;;;;;;38.50;28.35;;;8.50;99.90;;;;;;4229558;28;20108;-90
2022/12/23 04:56:21;;;;;;;54.03;33.35;;;8.50;99.90;;;;;;4231343;28;20058;-90
2022/12/23 04:58:41;;;;;;;154.98;47.08;;;8.50;99.90;;;;;;4223396;28;20051;-90
2022/12/23 05:01:07;;;;;;;64.25;37.83;;;8.50;99.90;;;;;;4230046;28;20089;-90
2022/12/23 05:03:27;;;;;;;44.28;31.15;;;8.60;99.90;;;;;;4214276;28;20039;-90
2022/12/23 05:05:47;;;;;;;41.67;31.40;;;8.50;99.90;;;;;;4222975;28;20051;-91
2022/12/23 05:08:07;;;;;;;47.13;31.30;;;8.50;99.90;;;;;;4231717;28;20038;-90
2022/12/23 05:10:28;;;;;;;48.78;31.55;;;8.50;99.90;;;;;;4222705;28;20054;-90
2022/12/23 05:12:48;;;;;;;51.70;34.20;;;8.50;99.90;;;;;;4230502;28;20050;-91
2022/12/23 05:15:08;;;;;;;71.40;37.55;;;8.50;99.90;;;;;;4222567;28;20046;-91
2022/12/23 05:17:28;;;;;;;45.65;32.20;;;8.50;99.90;;;;;;4229041;28;20354;-90
2022/12/23 05:19:48;;;;;;;54.22;34.85;;;8.50;99.90;;;;;;4231334;28;20109;-91
2022/12/23 05:22:07;;;;;;;60.55;34.08;;;8.50;99.90;;;;;;4223652;28;20051;-91
2022/12/23 05:24:27;;;;;;;51.97;30.63;;;8.40;99.90;;;;;;4222482;28;20050;-91
2022/12/23 05:26:50;;;;;;;45.88;29.95;;;8.40;99.90;;;;;;4217493;28;20109;-90
2022/12/23 05:29:18;;;;;;;46.05;30.90;;;8.40;99.90;;;;;;4213819;28;20051;-90
2022/12/23 05:31:39;;;;;;;37.13;27.90;;;8.40;99.90;;;;;;4222003;28;20397;-90
2022/12/23 05:33:58;;;;;;;34.95;27.35;;;8.40;99.90;;;;;;4230392;28;20042;-90
2022/12/23 05:36:25;;;;;;;34.47;25.80;;;8.50;99.90;;;;;;4221099;28;20242;-90
2022/12/23 05:38:45;;;;;;;33.38;27.75;;;8.50;99.90;;;;;;4210941;28;20082;-89
2022/12/23 05:41:05;;;;;;;34.50;26.95;;;8.50;99.90;;;;;;4223209;28;20085;-90
2022/12/23 05:43:25;;;;;;;30.67;26.58;;;8.60;99.90;;;;;;4231816;28;20043;-90
2022/12/23 05:45:46;;;;;;;31.88;27.10;;;8.60;99.90;;;;;;4227918;28;20047;-90
2022/12/23 05:48:06;;;;;;;30.30;26.20;;;8.60;99.90;;;;;;4212574;28;20076;-90
2022/12/23 05:50:26;;;;;;;32.70;26.02;;;8.60;99.90;;;;;;4221621;28;20277;-90
2022/12/23 05:52:45;;;;;;;36.17;27.40;;;8.60;99.90;;;;;;4217144;28;20301;-90
2022/12/23 05:55:06;;;;;;;31.27;25.98;;;8.60;99.90;;;;;;4222216;28;20095;-90
2022/12/23 05:57:26;;;;;;;36.22;26.98;;;8.60;99.90;;;;;;4227231;28;20089;-90
2022/12/23 05:59:45;;;;;;;30.95;25.73;;;8.60;99.90;;;;;;4222649;28;20081;-90
2022/12/23 06:02:05;;;;;;;28.08;25.08;;;8.60;99.90;;;;;;4215560;28;20067;-90
2022/12/23 06:04:25;;;;;;;29.65;24.80;;;8.60;99.90;;;;;;4230585;28;20055;-90
2022/12/23 06:06:45;;;;;;;28.33;25.40;;;8.60;99.90;;;;;;4211919;28;20393;-90
2022/12/23 06:09:05;;;;;;;30.48;26.55;;;8.60;99.90;;;;;;4225997;28;20317;-90
2022/12/23 06:11:25;;;;;;;27.58;24.65;;;8.60;99.90;;;;;;4216365;28;20056;-91
2022/12/23 06:13:45;;;;;;;27.05;24.27;;;8.60;99.90;;;;;;4221884;28;20082;-90
2022/12/23 06:16:06;;;;;;;29.33;22.30;;;8.60;99.90;;;;;;4229144;28;20086;-90
2022/12/23 06:18:27;;;;;;;25.35;22.98;;;8.60;99.90;;;;;;4228446;28;20043;-90
2022/12/23 06:20:47;;;;;;;25.10;22.92;;;8.60;99.90;;;;;;4213971;28;20140;-90
2022/12/23 06:23:07;;;;;;;25.48;22.98;;;8.60;99.90;;;;;;4215183;28;20090;-91
2022/12/23 06:25:27;;;;;;;23.67;21.38;;;8.60;99.90;;;;;;4220741;28;20094;-92
2022/12/23 06:27:47;;;;;;;26.38;22.63;;;8.60;99.90;;;;;;4222327;28;20067;-92
2022/12/23 06:30:08;;;;;;;25.58;22.50;;;8.60;99.90;;;;;;4221303;28;20066;-92
2022/12/23 06:32:28;;;;;;;23.92;21.58;;;8.60;99.90;;;;;;4228844;28;20043;-92
2022/12/23 06:34:57;;;;;;;23.13;20.88;;;8.70;99.90;;;;;;4218674;28;20059;-91
2022/12/23 06:37:17;;;;;;;24.67;22.00;;;8.60;99.90;;;;;;4215603;28;20270;-92
2022/12/23 06:39:37;;;;;;;23.27;19.80;;;8.60;99.90;;;;;;4210458;28;20059;-91
2022/12/23 06:41:57;;;;;;;22.95;20.73;;;8.70;99.90;;;;;;4221616;28;20311;-92
2022/12/23 06:44:17;;;;;;;22.08;19.65;;;8.70;99.90;;;;;;4219808;28;20054;-91
2022/12/23 06:46:37;;;;;;;20.80;19.00;;;8.60;99.90;;;;;;4211229;28;20154;-91
2022/12/23 06:48:57;;;;;;;25.67;23.02;;;8.60;99.90;;;;;;4212530;28;20083;-92
2022/12/23 06:51:17;;;;;;;23.45;21.25;;;8.60;99.90;;;;;;4228523;28;20231;-86
2022/12/23 06:53:38;;;;;;;24.73;22.38;;;8.60;99.90;;;;;;4212153;28;20075;-86
2022/12/23 06:56:02;;;;;;;25.50;22.95;;;8.60;99.90;;;;;;4224758;28;20085;-86
2022/12/23 06:58:22;;;;;;;24.23;21.73;;;8.60;99.90;;;;;;4228458;28;20104;-86
2022/12/23 07:00:41;;;;;;;25.30;22.67;;;8.60;99.90;;;;;;4221144;28;20051;-86
2022/12/23 07:03:01;;;;;;;25.85;23.27;;;8.60;99.90;;;;;;4228293;28;20299;-85
2022/12/23 07:05:21;;;;;;;25.42;22.55;;;8.60;99.90;;;;;;4227332;28;20366;-86
2022/12/23 07:07:41;;;;;;;27.88;23.83;;;8.60;99.90;;;;;;4215384;28;20055;-86
2022/12/23 07:10:01;;;;;;;28.08;25.15;;;8.60;99.90;;;;;;4217049;28;20252;-86
2022/12/23 07:12:21;;;;;;;30.20;25.58;;;8.60;99.90;;;;;;4227484;28;20081;-86
2022/12/23 07:14:41;;;;;;;27.17;24.10;;;8.60;99.90;;;;;;4228204;28;20067;-86
2022/12/23 07:17:02;;;;;;;29.20;26.08;;;8.60;99.90;;;;;;4220659;28;20042;-86
2022/12/23 07:19:22;;;;;;;33.78;27.10;;;8.60;99.90;;;;;;4232780;28;20061;-86
2022/12/23 07:21:42;;;;;;;29.63;26.42;;;8.60;99.90;;;;;;4224590;28;20094;-86
2022/12/23 07:24:02;;;;;;;34.33;27.90;;;8.60;99.90;;;;;;4226086;28;20052;-86
2022/12/23 07:26:45;;;;;;;36.42;27.10;;;8.60;99.90;;;;;;4233107;28;20058;-86
2022/12/23 07:29:06;;;;;;;31.38;28.00;;;8.60;99.90;;;;;;4152227;28;20081;-85
2022/12/23 07:31:52;;;;;;;34.20;29.02;;;8.60;99.90;;;;;;4150493;28;20061;-86
2022/12/23 07:34:12;;;;;;;43.90;31.85;;;8.60;99.90;;;;;;4093575;28;20043;-86
2022/12/23 07:36:35;;;;;;;33.35;29.25;;;8.60;99.90;;;;;;4098435;29;20046;-86
2022/12/23 07:38:55;;;;;;;35.38;28.38;;;8.60;99.90;;;;;;4105885;28;20038;-86
2022/12/23 07:41:15;;;;;;;38.40;30.83;;;8.60;99.90;;;;;;4096291;29;20055;-86
2022/12/23 07:43:35;;;;;;;38.30;29.77;;;8.60;99.90;;;;;;4081392;29;20055;-86
2022/12/23 07:45:55;;;;;;;33.42;27.50;;;8.60;99.90;;;;;;4089681;29;20059;-86
2022/12/23 07:48:19;;;;;;;37.47;28.05;;;8.60;99.90;;;;;;4080374;29;20136;-86
2022/12/23 07:50:39;;;;;;;26.65;24.00;;;8.60;99.90;;;;;;4091885;29;20411;-86
2022/12/23 07:53:00;;;;;;;30.40;25.02;;;8.60;99.90;;;;;;4095152;29;20059;-86
2022/12/23 07:55:20;;;;;;;30.65;26.27;;;8.70;99.90;;;;;;4095641;29;20046;-86
2022/12/23 07:57:40;;;;;;;34.83;27.13;;;8.70;99.90;;;;;;4091947;29;20062;-86
2022/12/23 08:00:00;;;;;;;33.30;27.45;;;8.70;99.90;;;;;;4084748;29;20125;-86
2022/12/23 08:02:23;;;;;;;36.13;26.63;;;8.70;99.90;;;;;;4075818;29;20260;-86
2022/12/23 08:04:43;;;;;;;35.85;24.95;;;8.70;99.90;;;;;;4093910;29;20069;-87
2022/12/23 08:07:05;;;;;;;30.63;24.10;;;8.80;99.90;;;;;;4140626;28;20403;-86
2022/12/23 08:09:25;;;;;;;31.70;24.50;;;8.80;99.90;;;;;;4134690;28;20391;-86
2022/12/23 08:11:45;;;;;;;36.58;29.38;;;8.80;99.90;;;;;;4208384;28;20112;-86
2022/12/23 08:14:05;;;;;;;33.67;28.85;;;8.80;99.90;;;;;;4232955;28;20054;-86
2022/12/23 08:16:25;;;;;;;27.73;24.45;;;8.80;99.90;;;;;;4215709;28;20055;-86
2022/12/23 08:18:45;;;;;;;25.83;23.05;;;8.90;99.90;;;;;;4213237;28;20078;-86
2022/12/23 08:21:17;;;;;;;29.67;23.40;;;8.90;99.90;;;;;;4223296;28;20047;-86
2022/12/23 08:23:37;;;;;;;26.33;22.33;;;8.90;99.90;;;;;;4216065;28;20106;-86
2022/12/23 08:26:04;;;;;;;29.60;23.45;;;8.90;99.90;;;;;;4224233;28;20070;-87
2022/12/23 08:28:24;;;;;;;25.10;22.83;;;8.90;99.90;;;;;;4222324;28;20071;-86
2022/12/23 08:30:43;;;;;;;24.67;21.77;;;8.90;99.90;;;;;;4234123;28;20156;-86
2022/12/23 08:33:03;;;;;;;26.65;22.60;;;8.90;99.90;;;;;;4223889;28;20047;-86
2022/12/23 08:35:23;;;;;;;25.13;22.45;;;8.90;99.90;;;;;;4223926;28;20047;-87
2022/12/23 08:37:42;;;;;;;25.48;22.85;;;8.90;99.90;;;;;;4230075;28;20115;-86
2022/12/23 08:40:02;;;;;;;26.10;23.15;;;9.00;99.90;;;;;;4232326;28;20294;-86
2022/12/23 08:42:22;;;;;;;25.73;23.23;;;9.00;99.90;;;;;;4222953;28;20047;-86
2022/12/23 08:44:42;;;;;;;26.75;23.45;;;9.00;99.90;;;;;;4214677;28;20087;-86
2022/12/23 08:47:02;;;;;;;24.92;22.55;;;9.00;99.90;;;;;;4222859;28;20058;-86
2022/12/23 08:49:22;;;;;;;26.85;22.23;;;9.00;99.90;;;;;;4230617;28;20047;-86
2022/12/23 08:51:41;;;;;;;24.02;21.52;;;9.10;99.90;;;;;;4232820;28;20117;-86
2022/12/23 08:54:02;;;;;;;23.38;20.80;;;9.10;99.90;;;;;;4230611;28;20063;-86
2022/12/23 08:56:24;;;;;;;22.35;20.02;;;9.10;99.90;;;;;;4224245;28;20077;-85
2022/12/23 08:58:46;;;;;;;23.40;20.92;;;9.10;99.90;;;;;;4223283;28;20106;-85
2022/12/23 09:01:09;;;;;;;25.30;22.08;;;9.10;99.90;;;;;;4231750;28;20154;-85
2022/12/23 09:03:28;;;;;;;23.15;20.55;;;9.10;99.90;;;;;;4231149;28;20297;-85
2022/12/23 09:05:48;;;;;;;22.40;20.20;;;9.10;99.90;;;;;;4215758;28;20305;-85
2022/12/23 09:08:08;;;;;;;18.80;16.85;;;9.10;99.90;;;;;;4212183;28;20263;-85
2022/12/23 09:10:28;;;;;;;19.27;17.77;;;9.10;99.90;;;;;;4230897;28;20055;-85
2022/12/23 09:12:49;;;;;;;18.88;17.25;;;9.20;99.90;;;;;;4229988;28;20062;-84
2022/12/23 09:15:09;;;;;;;20.67;18.75;;;9.20;99.90;;;;;;4212103;28;20097;-84
2022/12/23 09:17:29;;;;;;;18.63;17.23;;;9.20;99.90;;;;;;4224135;28;20047;-84
2022/12/23 09:19:48;;;;;;;18.83;17.52;;;9.20;99.90;;;;;;4218128;28;20047;-84
2022/12/23 09:22:12;;;;;;;17.98;16.55;;;9.30;99.90;;;;;;4214021;28;20050;-84
2022/12/23 09:24:33;;;;;;;19.30;17.65;;;9.20;99.90;;;;;;4222785;28;20290;-84
2022/12/23 09:26:53;;;;;;;16.55;15.23;;;9.20;99.90;;;;;;4223904;28;20370;-84
2022/12/23 09:29:12;;;;;;;19.00;17.40;;;9.20;99.90;;;;;;4224122;28;20114;-85
2022/12/23 09:31:32;;;;;;;17.45;15.82;;;9.20;99.90;;;;;;4217155;28;20047;-84
2022/12/23 09:33:57;;;;;;;15.23;14.00;;;9.20;99.90;;;;;;4223252;28;20235;-84
2022/12/23 09:36:18;;;;;;;14.65;13.75;;;9.20;99.90;;;;;;4232600;28;20078;-85
2022/12/23 09:38:38;;;;;;;12.50;11.93;;;9.20;99.90;;;;;;4223145;28;20077;-84
2022/12/23 09:41:08;;;;;;;12.55;11.98;;;9.20;99.90;;;;;;4214899;28;20079;-84
2022/12/23 09:43:54;;;;;;;13.10;12.50;;;9.20;99.90;;;;;;4235369;28;20042;-84
2022/12/23 09:46:17;;;;;;;13.48;12.57;;;9.30;99.90;;;;;;4226792;28;20127;-84
2022/12/23 09:48:44;;;;;;;12.68;12.15;;;9.30;99.90;;;;;;4230177;28;20069;-84
2022/12/23 09:51:05;;;;;;;12.85;12.27;;;9.30;99.90;;;;;;4228991;28;20047;-85
2022/12/23 09:53:43;;;;;;;15.00;13.77;;;9.30;99.90;;;;;;4228896;28;20057;-85
2022/12/23 09:56:26;;;;;;;13.90;13.13;;;9.40;99.90;;;;;;4213102;28;20043;-84
2022/12/23 09:59:21;;;;;;;15.57;14.35;;;9.40;99.90;;;;;;4217603;28;20374;-84
2022/12/23 10:01:54;;;;;;;11.45;10.68;;;9.40;99.90;;;;;;4210805;28;20086;-85
2022/12/23 10:04:35;;;;;;;13.27;12.50;;;9.40;99.90;;;;;;4211981;28;20446;-84
2022/12/23 10:07:04;;;;;;;12.80;12.00;;;9.40;99.90;;;;;;4230786;28;20277;-84
2022/12/23 10:09:24;;;;;;;10.88;10.27;;;9.50;99.90;;;;;;4234871;28;20072;-84
2022/12/23 10:11:48;;;;;;;11.55;10.90;;;9.40;99.90;;;;;;4227025;28;20246;-84
2022/12/23 10:14:30;;;;;;;10.32;9.73;;;9.50;99.90;;;;;;4228895;28;20046;-84
2022/12/23 10:17:09;;;;;;;11.80;11.25;;;9.50;99.90;;;;;;4222490;28;20052;-84
2022/12/23 10:19:40;;;;;;;10.57;10.18;;;9.50;99.90;;;;;;4228554;28;20227;-85
2022/12/23 10:22:13;;;;;;;12.07;11.32;;;9.60;99.90;;;;;;4215886;28;20051;-85
2022/12/23 10:24:37;;;;;;;11.05;10.32;;;9.60;99.90;;;;;;4212951;28;20039;-84
2022/12/23 10:27:03;;;;;;;10.35;10.05;;;9.60;99.90;;;;;;4230016;28;20047;-84
2022/12/23 10:29:25;;;;;;;10.48;10.10;;;9.70;99.90;;;;;;4231954;28;20137;-85
2022/12/23 10:32:19;;;;;;;9.50;8.88;;;9.70;99.90;;;;;;4233097;28;20063;-85
2022/12/23 10:35:12;;;;;;;10.38;9.90;;;9.70;99.90;;;;;;4210233;28;20069;-85
2022/12/23 10:37:47;;;;;;;10.57;10.02;;;9.70;99.90;;;;;;4231171;28;20322;-84
2022/12/23 10:40:38;;;;;;;11.57;11.05;;;9.80;99.90;;;;;;4215351;28;20416;-84
2022/12/23 10:43:08;;;;;;;13.48;12.60;;;9.70;99.90;;;;;;4213775;28;20389;-85
2022/12/23 10:45:38;;;;;;;13.07;12.05;;;9.80;99.90;;;;;;4227817;28;20086;-84
2022/12/23 10:48:25;;;;;;;12.00;11.40;;;9.80;99.90;;;;;;4234536;28;20160;-84
2022/12/23 10:51:08;;;;;;;12.35;11.70;;;9.80;99.90;;;;;;4219608;28;20035;-84
2022/12/23 10:54:00;;;;;;;13.98;12.93;;;9.80;99.90;;;;;;4228798;28;20046;-85
2022/12/23 10:56:21;;;;;;;14.98;13.88;;;9.80;99.90;;;;;;4223084;28;20043;-84
2022/12/23 10:58:44;;;;;;;14.57;13.52;;;9.90;99.90;;;;;;4222249;28;20059;-85
2022/12/23 11:01:06;;;;;;;13.43;12.48;;;9.90;99.90;;;;;;4217716;28;20047;-84
2022/12/23 11:03:41;;;;;;;13.45;12.27;;;9.80;99.90;;;;;;4214209;28;20148;-85
2022/12/23 11:06:02;;;;;;;12.13;11.52;;;9.80;99.90;;;;;;4224430;28;20039;-84
2022/12/23 11:08:24;;;;;;;11.40;10.77;;;9.80;99.90;;;;;;4230867;28;20054;-84
2022/12/23 11:10:45;;;;;;;13.05;12.25;;;9.80;99.90;;;;;;4231240;28;20054;-85
2022/12/23 11:13:05;;;;;;;13.45;12.48;;;9.90;99.90;;;;;;4217237;28;20070;-84
2022/12/23 11:15:34;;;;;;;15.88;14.55;;;9.90;99.90;;;;;;4231328;28;20047;-85
2022/12/23 11:18:18;;;;;;;15.25;14.13;;;9.90;99.90;;;;;;4212109;28;20056;-85
2022/12/23 11:20:41;;;;;;;13.23;12.23;;;9.90;99.90;;;;;;4234784;28;20385;-84
2022/12/23 11:23:03;;;;;;;19.85;15.38;;;9.90;99.90;;;;;;4215514;28;20121;-84
2022/12/23 11:25:41;;;;;;;16.27;14.80;;;9.90;99.90;;;;;;4229453;28;20050;-84
2022/12/23 11:28:10;;;;;;;17.30;14.27;;;9.90;99.90;;;;;;4219846;28;20102;-85
2022/12/23 11:30:35;;;;;;;15.25;13.98;;;9.80;99.90;;;;;;4230281;28;20280;-84
2022/12/23 11:32:57;;;;;;;14.73;13.68;;;9.90;99.90;;;;;;4216692;28;20059;-84
2022/12/23 11:35:29;;;;;;;14.93;13.90;;;9.90;99.90;;;;;;4230120;28;20077;-85
2022/12/23 11:37:49;;;;;;;16.53;15.17;;;9.90;99.90;;;;;;4233677;28;20077;-84
2022/12/23 11:40:37;;;;;;;17.30;15.98;;;9.90;99.90;;;;;;4225770;28;20043;-85
2022/12/23 11:43:10;;;;;;;18.35;16.90;;;9.80;99.90;;;;;;4221061;28;20047;-85
2022/12/23 11:45:36;;;;;;;19.27;17.55;;;9.80;99.90;;;;;;4227940;28;20412;-85
2022/12/23 11:47:56;;;;;;;18.05;16.58;;;9.90;99.90;;;;;;4227531;28;20068;-85
2022/12/23 11:50:27;;;;;;;18.40;16.50;;;9.90;99.90;;;;;;4246341;28;20031;-86
2022/12/23 11:52:53;;;;;;;15.68;14.30;;;9.90;99.90;;;;;;4238122;28;20051;-85
2022/12/23 11:55:24;;;;;;;19.00;17.23;;;9.90;99.90;;;;;;4228330;28;20366;-84
2022/12/23 11:57:47;;;;;;;15.60;14.57;;;10.00;99.90;;;;;;4234579;28;20043;-85
2022/12/23 12:00:26;;;;;;;15.52;14.20;;;9.90;99.90;;;;;;4217352;28;20069;-85
2022/12/23 12:02:51;;;;;;;15.77;14.65;;;9.90;99.90;;;;;;4226505;28;20043;-86
2022/12/23 12:05:53;;;;;;;16.30;15.02;;;9.90;99.90;;;;;;4215714;28;20078;-85
2022/12/23 12:08:19;;;;;;;14.65;13.32;;;9.90;99.90;;;;;;4159677;28;20240;-85
2022/12/23 12:10:40;;;;;;;14.27;13.10;;;10.00;99.90;;;;;;4169139;28;20040;-85
2022/12/23 12:13:03;;;;;;;15.10;14.02;;;10.00;99.90;;;;;;4172660;28;20448;-85
2022/12/23 12:15:27;;;;;;;;;;;10.00;99.90;;;;;;4172813;28;20109;-85
2022/12/23 12:17:51;;;;;;;16.10;14.65;;;10.00;99.90;;;;;;4172451;28;19979;-86
2022/12/23 12:20:19;;;;;;;16.58;15.07;;;10.10;99.90;;;;;;4171304;28;20044;-86
2022/12/23 12:22:46;;;;;;;15.60;14.20;;;10.00;99.90;;;;;;4172364;28;20267;-86
2022/12/23 12:25:16;;;;;;;15.23;14.23;;;10.00;99.90;;;;;;4158070;28;20072;-85
2022/12/23 12:27:39;;;;;;;16.23;14.93;;;10.00;99.90;;;;;;4158406;28;20057;-85
2022/12/23 12:30:18;;;;;;;18.48;16.55;;;10.10;99.90;;;;;;4158661;28;20069;-86
2022/12/23 12:32:52;;;;;;;15.43;14.13;;;10.10;99.90;;;;;;4158708;28;20049;-85
2022/12/23 12:35:18;;;;;;;16.45;15.07;;;10.10;99.90;;;;;;4158518;28;20045;-85
2022/12/23 12:37:42;;;;;;;18.20;16.63;;;10.10;99.90;;;;;;4172013;28;20241;-86
2022/12/23 12:40:27;;;;;;;18.08;16.60;;;10.20;99.90;;;;;;4228319;28;20235;-86
2022/12/23 12:42:53;;;;;;;16.45;14.80;;;10.20;99.90;;;;;;4223899;28;20286;-85
2022/12/23 12:45:23;;;;;;;17.45;15.88;;;10.20;99.90;;;;;;4233599;28;20051;-85
2022/12/23 12:48:12;;;;;;;14.30;13.10;;;10.20;99.90;;;;;;4222008;28;20381;-85
2022/12/23 12:50:59;;;;;;;13.98;12.95;;;10.20;99.90;;;;;;4202366;28;20078;-85